Time;durP1;ratioP1;P1;durP2;ratioP2;P2;SDS_P1;SDS_P2;PMS_P1;PMS_P2;Temp;Humidity;BMP_temperature;BMP_pressure;BME280_temperature;BME280_humidity;BME280_pressure;Samples;Min_cycle;Max_cycle;Signal;HPM_P1;HPM_P2
2021/07/03 00:03:29;;;;;;;10.13;8.60;;;;;;;17.44;72.10;99549.25;255171;1103;115515;-69
2021/07/03 00:08:32;;;;;;;10.55;8.40;;;;;;;17.43;72.22;99544.95;254709;1104;115876;-68
2021/07/03 00:13:36;;;;;;;11.03;8.68;;;;;;;17.34;72.34;99536.70;254308;1096;115672;-68
2021/07/03 00:18:40;;;;;;;9.63;8.63;;;;;;;17.35;72.80;99538.31;254073;1102;115779;-68
2021/07/03 00:23:43;;;;;;;11.15;8.65;;;;;;;17.34;72.31;99536.70;254471;1104;116452;-68
2021/07/03 00:28:46;;;;;;;15.97;8.37;;;;;;;17.27;72.57;99540.80;255035;1103;116358;-68
2021/07/03 00:33:50;;;;;;;9.90;8.95;;;;;;;17.24;72.82;99541.36;255051;1097;115984;-69
2021/07/03 00:38:53;;;;;;;9.63;8.63;;;;;;;17.20;72.74;99537.63;254899;1103;115141;-67
2021/07/03 00:43:56;;;;;;;11.07;9.90;;;;;;;17.22;73.00;99538.95;254753;1103;115679;-68
2021/07/03 00:49:00;;;;;;;11.33;9.45;;;;;;;17.22;73.26;99544.34;254320;1103;115440;-69
2021/07/03 00:54:03;;;;;;;9.88;9.00;;;;;;;17.21;73.28;99540.04;255956;1103;118288;-69
2021/07/03 00:59:06;;;;;;;11.80;9.53;;;;;;;17.23;73.09;99545.14;255382;1104;114907;-69
2021/07/03 01:04:09;;;;;;;16.07;10.47;;;;;;;17.25;73.52;99548.36;256323;1103;117572;-70
2021/07/03 01:09:12;;;;;;;10.20;9.10;;;;;;;17.33;73.60;99542.37;256390;1103;115721;-69
2021/07/03 01:14:17;;;;;;;18.10;9.58;;;;;;;17.27;73.54;99538.11;254937;1104;114692;-70
2021/07/03 01:19:21;;;;;;;13.20;9.35;;;;;;;17.28;73.89;99534.33;257289;1103;115973;-70
2021/07/03 01:24:24;;;;;;;14.88;9.33;;;;;;;17.29;73.68;99539.44;257228;1103;115409;-70
2021/07/03 01:29:28;;;;;;;14.55;10.98;;;;;;;17.33;73.76;99540.48;257208;1103;115583;-70
2021/07/03 01:34:32;;;;;;;14.17;9.23;;;;;;;17.41;73.37;99526.40;256490;1104;116487;-69
2021/07/03 01:39:35;;;;;;;10.77;9.23;;;;;;;17.43;73.53;99534.17;256327;1103;114704;-69
2021/07/03 01:44:40;;;;;;;14.28;9.58;;;;;;;17.43;73.64;99534.17;255775;1104;115028;-69
2021/07/03 01:49:45;;;;;;;10.83;8.78;;;;;;;17.37;73.43;99530.75;254248;1103;115748;-71
2021/07/03 01:54:49;;;;;;;11.30;8.88;;;;;;;17.37;73.50;99527.25;254800;1103;116254;-69
2021/07/03 01:59:52;;;;;;;10.70;9.65;;;;;;;17.31;73.97;99531.88;254252;1104;115869;-69
2021/07/03 02:04:56;;;;;;;13.30;9.93;;;;;;;17.15;73.56;99527.70;254526;1104;117705;-69
2021/07/03 02:09:58;;;;;;;17.90;10.70;;;;;;;17.08;73.79;99522.66;255054;1104;116476;-69
2021/07/03 02:15:01;;;;;;;10.73;8.65;;;;;;;17.04;73.89;99526.20;254405;1103;115352;-68
2021/07/03 02:20:06;;;;;;;12.47;9.23;;;;;;;16.98;73.85;99538.89;254292;1103;115647;-69
2021/07/03 02:25:10;;;;;;;15.83;10.33;;;;;;;16.93;74.05;99535.43;254793;1104;115775;-69
2021/07/03 02:30:15;;;;;;;14.53;9.85;;;;;;;16.87;74.16;99536.55;254566;1104;115628;-69
2021/07/03 02:35:20;;;;;;;16.85;9.88;;;;;;;16.81;74.08;99533.11;255116;1104;115752;-69
2021/07/03 02:40:24;;;;;;;9.38;8.03;;;;;;;16.71;73.85;99541.25;255385;1104;115730;-68
2021/07/03 02:45:29;;;;;;;8.70;7.85;;;;;;;16.68;74.28;99537.22;254560;1097;116210;-69
2021/07/03 02:50:33;;;;;;;14.23;8.70;;;;;;;16.66;74.31;99539.39;255853;1103;114911;-68
2021/07/03 02:55:37;;;;;;;13.60;9.05;;;;;;;16.64;74.01;99538.86;255053;1103;115464;-69
2021/07/03 03:00:40;;;;;;;12.40;8.80;;;;;;;16.62;74.39;99546.38;255107;1103;115574;-67
2021/07/03 03:05:43;;;;;;;9.98;8.55;;;;;;;16.65;74.40;99556.63;257014;1104;115583;-68
2021/07/03 03:10:46;;;;;;;15.15;7.25;;;;;;;16.69;74.19;99546.91;255854;1104;115395;-69
2021/07/03 03:15:49;;;;;;;9.08;6.80;;;;;;;16.75;74.25;99550.38;255985;1104;115718;-71
2021/07/03 03:20:52;;;;;;;13.53;7.33;;;;;;;16.72;74.32;99551.73;257158;1104;116591;-70
2021/07/03 03:25:56;;;;;;;12.10;6.83;;;;;;;16.70;74.16;99548.52;255732;1104;115886;-68
2021/07/03 03:30:59;;;;;;;11.25;6.70;;;;;;;16.71;74.08;99554.70;256328;1104;116241;-69
2021/07/03 03:36:04;;;;;;;8.55;6.45;;;;;;;16.76;74.30;99546.60;256082;1103;115764;-68
2021/07/03 03:41:07;;;;;;;13.38;6.88;;;;;;;16.87;73.99;99550.01;255397;1103;115906;-68
2021/07/03 03:46:11;;;;;;;10.60;7.17;;;;;;;16.96;74.20;99551.83;254613;1097;116739;-68
2021/07/03 03:51:16;;;;;;;11.77;6.73;;;;;;;16.95;73.95;99550.22;255235;1102;116018;-68
2021/07/03 03:56:19;;;;;;;7.85;6.75;;;;;;;16.94;74.13;99545.11;254330;1104;205887;-69
2021/07/03 04:01:21;;;;;;;14.60;7.35;;;;;;;16.99;74.31;99545.88;254765;1096;115576;-68
2021/07/03 04:06:24;;;;;;;8.78;6.45;;;;;;;16.98;74.17;99546.97;254978;1104;115521;-68
2021/07/03 04:11:27;;;;;;;6.40;5.87;;;;;;;16.93;74.14;99551.59;254369;1103;117199;-68
2021/07/03 04:16:30;;;;;;;9.10;6.33;;;;;;;16.96;74.33;99551.83;254771;1103;116004;-68
2021/07/03 04:21:34;;;;;;;7.88;6.43;;;;;;;17.02;74.33;99542.63;254763;1104;115284;-68
2021/07/03 04:26:38;;;;;;;14.98;6.70;;;;;;;17.08;74.20;99549.59;254143;1104;115755;-68
2021/07/03 04:31:44;;;;;;;9.03;6.75;;;;;;;17.16;74.11;99535.50;254676;1099;115799;-68
2021/07/03 04:36:48;;;;;;;7.28;5.80;;;;;;;17.30;73.95;99530.27;255233;1104;115968;-68
2021/07/03 04:41:53;;;;;;;8.83;6.70;;;;;;;17.52;73.83;99529.78;254958;1103;118576;-68
2021/07/03 04:46:56;;;;;;;12.60;6.70;;;;;;;17.75;73.68;99538.98;254089;1104;116826;-68
2021/07/03 04:52:01;;;;;;;8.20;6.38;;;;;;;17.93;73.04;99543.66;255296;1104;116590;-68
2021/07/03 04:57:07;;;;;;;5.78;4.95;;;;;;;18.06;72.93;99542.14;254471;1104;115928;-69
2021/07/03 05:02:13;;;;;;;8.10;4.93;;;;;;;18.15;72.81;99551.20;255106;1103;115612;-68
2021/07/03 05:07:16;;;;;;;8.70;5.35;;;;;;;18.30;72.76;99544.83;256703;1104;115299;-68
2021/07/03 05:12:19;;;;;;;6.73;5.78;;;;;;;18.60;72.44;99549.03;254237;1104;115715;-68
2021/07/03 05:17:22;;;;;;;7.03;5.48;;;;;;;18.96;72.30;99549.27;256376;1103;114832;-69
2021/07/03 05:22:25;;;;;;;6.68;5.48;;;;;;;19.33;71.72;99551.10;256528;1104;115625;-68
2021/07/03 05:27:28;;;;;;;7.13;6.43;;;;;;;20.21;70.72;99552.69;257084;1104;115286;-69
2021/07/03 05:32:32;;;;;;;6.33;4.73;;;;;;;21.32;69.45;99545.86;257123;1103;115451;-69
2021/07/03 05:37:38;;;;;;;5.63;4.75;;;;;;;22.89;67.71;99548.73;255368;1103;115870;-69
2021/07/03 05:42:40;;;;;;;9.77;4.13;;;;;;;22.91;66.50;99541.86;256488;1103;114948;-68
2021/07/03 05:47:50;;;;;;;5.58;5.00;;;;;;;22.69;66.04;99545.50;255181;1104;116384;-68
2021/07/03 05:52:55;;;;;;;5.67;5.17;;;;;;;22.84;65.45;99553.22;255183;1104;115128;-68
2021/07/03 05:57:59;;;;;;;5.23;4.15;;;;;;;22.90;65.37;99553.05;255498;1104;115101;-68
2021/07/03 06:03:02;;;;;;;7.80;4.68;;;;;;;23.26;64.27;99549.95;255606;1104;114733;-68
2021/07/03 06:08:06;;;;;;;10.35;5.00;;;;;;;23.75;63.66;99546.64;255110;1103;115522;-68
2021/07/03 06:13:08;;;;;;;4.43;4.03;;;;;;;23.80;63.15;99554.63;254469;1104;116665;-68
2021/07/03 06:18:11;;;;;;;7.03;6.33;;;;;;;23.40;62.71;99556.81;255224;1103;115210;-68
2021/07/03 06:23:15;;;;;;;6.15;5.13;;;;;;;22.85;62.86;99556.73;254398;1104;115538;-68
2021/07/03 06:28:18;;;;;;;6.68;5.88;;;;;;;22.37;63.17;99565.75;254407;1104;115649;-68
2021/07/03 06:33:21;;;;;;;10.23;5.73;;;;;;;21.98;63.70;99572.03;254797;1104;115445;-68
2021/07/03 06:38:24;;;;;;;6.55;5.48;;;;;;;21.72;63.99;99565.67;254974;1103;115347;-68
2021/07/03 06:43:26;;;;;;;6.80;6.03;;;;;;;21.64;64.36;99575.39;254535;1104;115637;-68
2021/07/03 06:48:29;;;;;;;5.63;4.85;;;;;;;21.49;64.52;99578.48;254805;1104;136817;-68
2021/07/03 06:53:34;;;;;;;5.10;4.63;;;;;;;21.54;64.76;99572.94;255234;1097;115683;-68
2021/07/03 06:58:37;;;;;;;10.65;5.78;;;;;;;21.59;64.81;99566.58;254387;1104;115475;-68
2021/07/03 07:03:40;;;;;;;8.97;4.80;;;;;;;21.61;64.63;99567.08;255419;1102;115735;-68
2021/07/03 07:08:45;;;;;;;8.93;5.90;;;;;;;21.44;64.57;99567.77;256541;1103;115743;-69
2021/07/03 07:13:49;;;;;;;10.33;5.28;;;;;;;21.35;64.72;99570.45;254962;1104;115492;-68
2021/07/03 07:18:52;;;;;;;9.30;4.78;;;;;;;21.21;64.84;99568.91;255654;1104;117123;-68
2021/07/03 07:23:55;;;;;;;4.38;4.08;;;;;;;21.04;64.55;99575.78;254760;1104;114912;-68
2021/07/03 07:28:58;;;;;;;5.45;4.85;;;;;;;21.08;65.03;99575.98;257238;1104;115899;-68
2021/07/03 07:34:01;;;;;;;5.75;4.53;;;;;;;21.65;65.22;99571.57;257153;1104;114679;-68
2021/07/03 07:39:05;;;;;;;5.05;4.53;;;;;;;22.68;64.69;99562.92;257018;1104;115665;-68
2021/07/03 07:44:08;;;;;;;5.23;4.83;;;;;;;23.00;63.35;99569.82;256264;1103;115402;-68
2021/07/03 07:49:11;;;;;;;7.48;4.25;;;;;;;23.14;63.12;99572.38;257102;1100;115555;-68
2021/07/03 07:54:15;;;;;;;6.55;4.68;;;;;;;23.01;62.63;99565.98;256288;1104;116163;-68
2021/07/03 07:59:17;;;;;;;6.75;4.48;;;;;;;22.82;62.31;99574.48;256404;1103;115686;-68
2021/07/03 08:04:21;;;;;;;6.63;5.15;;;;;;;22.54;62.15;99570.44;255160;1104;115735;-68
2021/07/03 08:09:24;;;;;;;10.48;4.38;;;;;;;22.28;61.81;99575.02;255215;1104;117373;-67
2021/07/03 08:14:28;;;;;;;4.50;4.05;;;;;;;21.97;61.96;99580.48;255020;1104;116454;-68
2021/07/03 08:19:31;;;;;;;4.65;4.10;;;;;;;21.69;61.95;99569.04;254062;1104;116270;-68
2021/07/03 08:24:34;;;;;;;5.48;4.98;;;;;;;21.48;62.48;99572.27;254888;1104;116944;-67
2021/07/03 08:29:37;;;;;;;7.93;4.73;;;;;;;21.41;62.79;99573.81;255510;1104;116859;-68
2021/07/03 08:34:40;;;;;;;3.83;3.53;;;;;;;21.32;62.88;99581.91;254500;1096;116394;-67
2021/07/03 08:39:44;;;;;;;4.43;4.03;;;;;;;21.17;62.77;99585.75;254276;1104;115828;-67
2021/07/03 08:44:50;;;;;;;6.20;4.10;;;;;;;21.06;62.54;99576.28;254261;1103;116297;-67
2021/07/03 08:50:00;;;;;;;4.58;4.18;;;;;;;20.93;62.98;99590.67;255161;1103;116354;-68
2021/07/03 08:55:11;;;;;;;4.15;3.85;;;;;;;20.84;62.98;99592.50;254763;1104;115801;-68
2021/07/03 09:00:15;;;;;;;7.83;4.63;;;;;;;20.77;63.73;99590.23;254788;1104;115861;-67
2021/07/03 09:05:18;;;;;;;5.40;4.75;;;;;;;20.73;63.54;99601.98;254720;1099;116474;-67
2021/07/03 09:10:23;;;;;;;5.10;4.43;;;;;;;20.76;63.76;99593.25;254444;1104;116068;-68
2021/07/03 09:15:28;;;;;;;53.33;7.53;;;;;;;20.73;64.01;99593.86;254833;1104;208539;-68
2021/07/03 09:20:52;;;;;;;5.98;4.30;;;;;;;20.77;64.28;99590.23;255799;1104;115025;-68
2021/07/03 09:25:59;;;;;;;5.00;4.58;;;;;;;20.96;64.13;99590.06;255607;1104;115371;-68
2021/07/03 09:31:04;;;;;;;6.85;5.18;;;;;;;21.28;64.34;99580.13;256959;1104;115707;-68
2021/07/03 09:36:09;;;;;;;4.40;4.05;;;;;;;21.78;63.85;99567.94;257103;1104;114863;-68
2021/07/03 09:41:20;;;;;;;6.93;5.28;;;;;;;22.37;64.14;99563.04;256482;1103;116864;-68
2021/07/03 09:46:31;;;;;;;5.10;4.70;;;;;;;22.74;63.21;99560.84;256924;1104;117136;-68
2021/07/03 09:51:41;;;;;;;5.30;3.75;;;;;;;22.91;62.38;99560.89;257329;1104;116197;-68
2021/07/03 09:56:44;;;;;;;5.70;3.80;;;;;;;22.92;61.96;99556.26;256190;1104;116761;-67
2021/07/03 10:01:47;;;;;;;8.97;4.47;;;;;;;22.86;60.90;99561.05;255637;1103;115504;-68
2021/07/03 10:06:59;;;;;;;7.63;4.68;;;;;;;22.80;60.94;99562.32;254830;1104;115188;-67
2021/07/03 10:12:08;;;;;;;4.78;4.43;;;;;;;22.56;60.59;99570.11;255133;1104;115748;-68
2021/07/03 10:17:12;;;;;;;8.83;4.45;;;;;;;22.47;60.83;99568.18;255170;1104;117611;-67
2021/07/03 10:22:27;;;;;;;5.45;4.33;;;;;;;22.37;60.63;99563.04;254535;1104;115893;-68
2021/07/03 10:27:32;;;;;;;5.88;4.58;;;;;;;22.25;60.88;99562.08;254337;1104;116723;-68
2021/07/03 10:32:38;;;;;;;3.95;3.73;;;;;;;22.16;60.77;99562.05;254836;1104;115250;-68
2021/07/03 10:37:42;;;;;;;7.27;3.97;;;;;;;22.06;60.39;99563.13;254225;1104;115036;-68
2021/07/03 10:42:49;;;;;;;8.38;4.68;;;;;;;22.08;60.16;99563.61;254592;1098;115220;-67
2021/07/03 10:47:54;;;;;;;4.93;3.70;;;;;;;22.11;59.85;99562.19;254282;1104;116023;-67
2021/07/03 10:52:58;;;;;;;4.68;4.28;;;;;;;22.10;59.88;99561.38;255091;1104;115506;-67
2021/07/03 10:58:13;;;;;;;11.23;4.98;;;;;;;22.00;59.93;99563.58;254413;1104;115417;-67
2021/07/03 11:03:24;;;;;;;9.05;4.43;;;;;;;21.83;59.91;99564.30;255437;1104;116180;-67
2021/07/03 11:08:37;;;;;;;5.30;4.80;;;;;;;21.68;59.90;99573.66;254890;1104;115941;-67
2021/07/03 11:13:43;;;;;;;16.60;4.20;;;;;;;21.72;60.24;99573.81;255696;1104;116586;-67
2021/07/03 11:18:47;;;;;;;6.25;4.63;;;;;;;21.75;60.27;99571.27;255060;1103;116417;-67
2021/07/03 11:24:00;;;;;;;5.93;4.75;;;;;;;21.79;60.38;99569.55;255293;1104;115670;-67
2021/07/03 11:29:03;;;;;;;12.58;4.75;;;;;;;22.01;60.50;99573.34;255538;1104;115513;-67
2021/07/03 11:34:06;;;;;;;4.70;3.98;;;;;;;22.35;60.14;99576.13;256531;1103;115844;-67
2021/07/03 11:39:09;;;;;;;4.28;3.98;;;;;;;22.67;59.74;99566.75;255557;1097;115921;-67
2021/07/03 11:44:13;;;;;;;11.33;3.80;;;;;;;22.98;58.82;99577.50;254534;1104;115769;-67
2021/07/03 11:49:16;;;;;;;6.73;4.10;;;;;;;23.21;58.07;99569.98;254339;1103;117032;-67
2021/07/03 11:54:18;;;;;;;3.80;3.30;;;;;;;23.50;57.32;99561.11;257019;1104;115068;-68
2021/07/03 11:59:21;;;;;;;5.13;4.00;;;;;;;23.80;56.86;99565.52;256585;1104;116808;-68
2021/07/03 12:04:24;;;;;;;7.33;4.23;;;;;;;24.00;56.15;99555.02;255934;1104;117297;-68
2021/07/03 12:09:34;;;;;;;5.93;4.28;;;;;;;24.03;55.69;99557.08;254417;1104;115575;-68
2021/07/03 12:14:38;;;;;;;7.60;4.73;;;;;;;24.01;54.97;99554.69;254838;1103;116043;-68
2021/07/03 12:19:42;;;;;;;5.78;4.18;;;;;;;24.02;54.50;99553.56;255025;1094;115586;-68
2021/07/03 12:24:54;;;;;;;5.73;3.10;;;;;;;24.02;53.92;99552.77;254652;1104;115319;-67
2021/07/03 12:30:07;;;;;;;3.90;3.60;;;;;;;23.96;53.27;99543.18;254872;1104;115663;-67
2021/07/03 12:35:39;;;;;;;9.58;4.10;;;;;;;24.02;53.43;99544.59;254962;1104;115054;-67
2021/07/03 12:40:43;;;;;;;3.70;3.48;;;;;;;24.03;52.47;99543.47;254722;1104;116114;-67
2021/07/03 12:45:58;;;;;;;7.63;3.07;;;;;;;23.91;51.94;99540.64;254937;1104;115356;-68
2021/07/03 12:51:01;;;;;;;5.00;3.40;;;;;;;23.83;52.05;99534.13;254604;1100;115448;-68
2021/07/03 12:56:07;;;;;;;3.27;2.80;;;;;;;23.84;51.58;99531.08;254347;1103;116742;-67
2021/07/03 13:01:10;;;;;;;5.70;3.40;;;;;;;23.96;51.47;99516.75;254378;1097;115756;-69
2021/07/03 13:06:18;;;;;;;3.30;2.85;;;;;;;24.32;51.44;99526.34;255073;1097;116540;-69
2021/07/03 13:11:23;;;;;;;3.68;3.10;;;;;;;24.56;51.57;99520.23;254213;1104;116170;-67
2021/07/03 13:16:25;;;;;;;4.10;3.33;;;;;;;25.05;51.14;99511.17;254565;1097;117183;-67
2021/07/03 13:21:28;;;;;;;3.58;2.95;;;;;;;25.41;50.08;99509.64;254850;1097;116048;-69
2021/07/03 13:26:31;;;;;;;8.60;4.05;;;;;;;25.68;49.64;99517.20;255224;1104;115849;-68
2021/07/03 13:31:47;;;;;;;3.47;3.27;;;;;;;25.64;48.30;99502.67;254283;1104;116453;-68
2021/07/03 13:36:50;;;;;;;5.77;3.37;;;;;;;25.86;48.59;99509.61;254151;1104;134621;-67
2021/07/03 13:41:53;;;;;;;6.53;3.28;;;;;;;25.82;47.80;99512.22;254283;1097;116927;-69
2021/07/03 13:46:57;;;;;;;3.90;3.67;;;;;;;25.64;47.45;99518.25;254070;1103;116287;-67
2021/07/03 13:52:00;;;;;;;4.60;2.78;;;;;;;25.59;47.35;99505.59;254723;1104;116144;-67
2021/07/03 13:57:04;;;;;;;3.98;3.23;;;;;;;25.44;47.17;99506.24;257422;1104;116591;-67
2021/07/03 14:02:08;;;;;;;6.00;3.05;;;;;;;25.38;47.22;99511.12;257064;1104;115752;-69
2021/07/03 14:07:12;;;;;;;3.05;2.63;;;;;;;25.26;47.24;99515.77;255428;1103;115869;-70
2021/07/03 14:12:15;;;;;;;3.90;3.43;;;;;;;25.04;46.65;99512.31;257135;1103;115084;-67
2021/07/03 14:17:18;;;;;;;3.70;2.85;;;;;;;25.00;47.59;99497.75;254757;1103;115658;-68
2021/07/03 14:22:21;;;;;;;8.68;3.40;;;;;;;24.92;47.31;99506.77;254289;1104;114793;-69
2021/07/03 14:27:28;;;;;;;6.03;3.43;;;;;;;24.82;47.42;99505.25;254806;1103;115676;-67
2021/07/03 14:32:30;;;;;;;;;;;;;;;24.80;47.32;99510.23;256749;1103;116013;-68
2021/07/03 14:37:33;;;;;;;3.48;2.93;;;;;;;24.83;46.84;99508.77;255516;1096;104631;-68
2021/07/03 14:42:36;;;;;;;3.07;2.80;;;;;;;24.78;46.51;99508.97;254114;1104;115078;-67
2021/07/03 14:47:41;;;;;;;3.30;2.90;;;;;;;24.72;46.76;99513.06;254892;1103;118961;-67
2021/07/03 14:52:44;;;;;;;6.68;2.58;;;;;;;24.63;46.48;99510.40;254598;1104;116462;-69
2021/07/03 14:57:48;;;;;;;2.83;2.48;;;;;;;24.57;46.47;99516.38;254209;1104;116931;-68
2021/07/03 15:02:51;;;;;;;4.73;2.63;;;;;;;24.42;46.50;99515.86;254298;1104;116450;-67
2021/07/03 15:07:56;;;;;;;4.00;2.75;;;;;;;24.32;46.46;99518.17;254310;1104;116342;-68
2021/07/03 15:12:58;;;;;;;4.37;2.80;;;;;;;24.16;46.76;99512.45;254331;1104;117257;-68
2021/07/03 15:18:02;;;;;;;2.30;2.10;;;;;;;24.10;46.83;99502.91;254248;1104;116821;-68
2021/07/03 15:23:05;;;;;;;3.98;2.40;;;;;;;24.19;47.22;99495.46;255029;1104;116003;-68
2021/07/03 15:28:11;;;;;;;3.00;2.70;;;;;;;24.09;46.82;99495.87;254279;1104;116108;-68
2021/07/03 15:33:14;;;;;;;2.45;2.25;;;;;;;23.90;47.39;99499.00;254495;1103;115931;-68
2021/07/03 15:38:17;;;;;;;4.58;2.43;;;;;;;23.60;47.52;99498.19;253945;1104;116623;-70
2021/07/03 15:43:21;;;;;;;3.37;3.07;;;;;;;23.42;47.74;99494.72;254252;1103;116226;-68
2021/07/03 15:48:27;;;;;;;2.65;2.40;;;;;;;23.31;48.36;99498.91;254948;1104;116927;-67
2021/07/03 15:53:31;;;;;;;5.70;2.97;;;;;;;23.23;48.32;99496.23;254742;1088;116237;-67
2021/07/03 15:58:35;;;;;;;5.20;2.50;;;;;;;23.15;48.52;99490.48;256783;1104;115659;-68
2021/07/03 16:03:40;;;;;;;2.90;2.70;;;;;;;23.14;48.46;99488.89;257179;1104;115894;-67
2021/07/03 16:08:44;;;;;;;3.00;2.80;;;;;;;23.23;48.35;99490.80;257151;1104;116005;-67
2021/07/03 16:13:47;;;;;;;4.93;3.40;;;;;;;23.23;48.63;99488.08;257275;1104;115982;-67
2021/07/03 16:18:51;;;;;;;4.50;3.35;;;;;;;23.20;48.49;99484.08;257139;1104;115574;-67
2021/07/03 16:23:55;;;;;;;2.80;2.60;;;;;;;23.22;48.24;99475.60;255787;1104;117414;-67
2021/07/03 16:28:57;;;;;;;3.73;2.77;;;;;;;23.22;48.59;99483.76;256354;1104;115112;-67
2021/07/03 16:34:00;;;;;;;2.80;2.60;;;;;;;23.20;48.89;99483.28;255426;1104;115328;-68
2021/07/03 16:39:04;;;;;;;3.08;2.78;;;;;;;23.12;48.72;99490.33;254468;1104;116582;-67
2021/07/03 16:44:08;;;;;;;3.50;2.90;;;;;;;22.91;48.85;99487.51;254958;1099;115225;-68
2021/07/03 16:49:12;;;;;;;3.73;2.40;;;;;;;22.66;48.80;99494.52;255712;1104;115170;-68
2021/07/03 16:54:15;;;;;;;9.23;5.30;;;;;;;22.50;48.98;99488.77;254339;1099;115489;-67
2021/07/03 16:59:18;;;;;;;2.93;2.70;;;;;;;22.39;49.66;99490.20;254978;1104;115374;-66
2021/07/03 17:04:21;;;;;;;4.27;2.63;;;;;;;22.28;50.17;99493.56;254719;1104;115382;-67
2021/07/03 17:09:24;;;;;;;3.98;2.18;;;;;;;22.18;51.01;99489.23;254385;1104;115408;-67
2021/07/03 17:14:28;;;;;;;7.33;2.83;;;;;;;22.09;51.43;99491.13;255016;1099;115018;-67
2021/07/03 17:19:31;;;;;;;3.55;2.25;;;;;;;22.01;51.94;99491.92;254123;1104;115748;-67
2021/07/03 17:24:34;;;;;;;1.88;1.75;;;;;;;21.92;52.42;99496.49;255463;1104;116142;-67
2021/07/03 17:29:36;;;;;;;2.20;2.00;;;;;;;21.91;52.57;99494.89;254576;1104;115183;-67
2021/07/03 17:34:40;;;;;;;2.38;1.78;;;;;;;21.90;53.04;99498.72;255548;1104;115839;-66
2021/07/03 17:39:43;;;;;;;1.93;1.83;;;;;;;21.90;53.42;99509.57;255348;1104;114895;-67
2021/07/03 17:44:47;;;;;;;1.83;1.73;;;;;;;21.89;53.74;99510.69;254620;1104;115880;-67
2021/07/03 17:49:50;;;;;;;2.70;2.48;;;;;;;21.84;53.87;99517.05;255160;1104;115398;-66
2021/07/03 17:54:53;;;;;;;3.10;1.67;;;;;;;21.83;53.95;99521.68;255307;1104;115462;-67
2021/07/03 17:59:57;;;;;;;3.03;1.83;;;;;;;21.76;54.38;99517.81;255274;1104;115932;-66
2021/07/03 18:05:01;;;;;;;4.78;2.78;;;;;;;21.67;54.74;99530.56;254391;1098;115888;-68
2021/07/03 18:10:07;;;;;;;2.40;2.30;;;;;;;21.53;54.77;99527.94;255137;1104;114882;-67
2021/07/03 18:15:10;;;;;;;;;;;;;;;21.45;55.04;99531.41;256616;1104;114673;-69
2021/07/03 18:20:13;;;;;;;5.20;1.73;;;;;;;21.36;55.00;99531.38;258065;1104;103709;-68
2021/07/03 18:25:17;;;;;;;2.53;2.33;;;;;;;21.30;55.28;99535.33;256902;1104;115027;-68
2021/07/03 18:30:19;;;;;;;3.63;2.08;;;;;;;21.21;55.30;99530.95;256867;1104;115625;-68
2021/07/03 18:35:23;;;;;;;2.50;2.40;;;;;;;21.11;55.16;99526.55;256505;1104;115289;-68
2021/07/03 18:40:25;;;;;;;4.73;2.88;;;;;;;21.00;55.36;99533.34;254274;1104;115837;-68
2021/07/03 18:45:29;;;;;;;2.48;2.15;;;;;;;20.86;55.85;99530.69;253998;1104;115185;-67
2021/07/03 18:50:35;;;;;;;4.58;3.13;;;;;;;20.73;55.73;99531.55;255444;1104;115178;-68
2021/07/03 18:55:41;;;;;;;2.90;2.63;;;;;;;20.56;55.85;99534.10;254219;1104;116005;-67
2021/07/03 19:00:44;;;;;;;5.75;3.13;;;;;;;20.36;56.38;99530.72;254312;1104;115463;-67
2021/07/03 19:05:47;;;;;;;4.68;3.75;;;;;;;20.17;56.77;99530.87;253951;1104;114994;-66
2021/07/03 19:10:51;;;;;;;4.63;3.58;;;;;;;20.01;56.85;99539.58;254474;1104;115797;-67
2021/07/03 19:15:54;;;;;;;4.23;3.10;;;;;;;19.84;57.25;99538.30;254658;1104;115784;-66
2021/07/03 19:20:58;;;;;;;3.58;3.28;;;;;;;19.68;57.61;99546.98;254538;1104;116613;-67
2021/07/03 19:26:05;;;;;;;5.48;3.68;;;;;;;19.56;57.95;99546.69;255741;1104;114758;-68
2021/07/03 19:31:12;;;;;;;6.00;4.30;;;;;;;19.45;58.28;99541.43;255065;1099;115574;-67
2021/07/03 19:36:17;;;;;;;7.80;5.10;;;;;;;19.37;58.39;99544.00;254019;1104;115255;-67
2021/07/03 19:41:21;;;;;;;5.97;5.37;;;;;;;19.24;58.99;99539.39;255133;1104;116286;-68
2021/07/03 19:46:24;;;;;;;9.13;5.43;;;;;;;19.11;58.33;99538.23;255036;1104;114884;-67
2021/07/03 19:51:28;;;;;;;5.10;4.58;;;;;;;18.98;59.45;99531.67;254970;1104;116835;-67
2021/07/03 19:56:32;;;;;;;11.95;4.88;;;;;;;18.84;59.77;99541.64;254358;1104;117101;-67
2021/07/03 20:01:36;;;;;;;4.93;4.08;;;;;;;18.76;59.97;99545.80;255939;1104;116413;-67
2021/07/03 20:06:40;;;;;;;4.13;3.77;;;;;;;18.63;60.30;99529.55;257163;1104;115538;-68
2021/07/03 20:11:45;;;;;;;4.95;3.68;;;;;;;18.55;60.50;99532.88;256979;1104;115860;-68
2021/07/03 20:16:49;;;;;;;4.20;3.55;;;;;;;18.44;60.64;99526.80;256343;1104;114802;-66
2021/07/03 20:21:55;;;;;;;4.45;3.60;;;;;;;18.38;61.25;99522.56;257161;1104;115810;-67
2021/07/03 20:26:58;;;;;;;4.23;3.28;;;;;;;18.31;61.32;99533.75;257101;1104;114901;-67
2021/07/03 20:32:02;;;;;;;3.85;3.50;;;;;;;18.26;61.28;99536.50;257060;1104;115981;-67
2021/07/03 20:37:06;;;;;;;3.83;3.30;;;;;;;18.12;61.63;99543.69;254862;1104;115865;-66
2021/07/03 20:42:11;;;;;;;3.63;3.03;;;;;;;18.03;62.12;99523.86;255052;1104;116758;-67
2021/07/03 20:47:17;;;;;;;5.58;4.05;;;;;;;17.93;62.56;99538.27;254865;1104;116012;-65
2021/07/03 20:52:20;;;;;;;;;;;;;;;17.87;62.97;99549.39;254400;1104;116279;-67
2021/07/03 20:57:23;;;;;;;6.10;3.28;;;;;;;17.73;63.03;99558.15;256049;1104;103037;-67
2021/07/03 21:02:28;;;;;;;3.35;3.00;;;;;;;17.66;63.72;99546.92;254516;1098;116089;-69
2021/07/03 21:07:32;;;;;;;4.48;3.38;;;;;;;17.57;63.67;99556.68;255338;1104;115840;-69
2021/07/03 21:12:35;;;;;;;8.25;3.80;;;;;;;17.41;64.07;99557.93;254532;1104;115724;-68
2021/07/03 21:17:39;;;;;;;6.20;3.98;;;;;;;17.35;64.24;99553.67;254849;1099;115845;-68
2021/07/03 21:22:48;;;;;;;7.03;4.10;;;;;;;17.29;64.62;99538.63;254236;1104;115468;-68
2021/07/03 21:27:52;;;;;;;5.48;3.98;;;;;;;17.18;64.75;99549.48;255345;1104;115980;-68
2021/07/03 21:33:01;;;;;;;4.23;3.83;;;;;;;17.10;65.16;99552.81;254401;1104;115829;-67
2021/07/03 21:38:07;;;;;;;3.88;3.55;;;;;;;17.00;65.29;99560.95;255621;1104;115036;-68
2021/07/03 21:43:12;;;;;;;6.80;3.13;;;;;;;16.99;65.59;99564.73;254254;1100;115090;-68
2021/07/03 21:48:15;;;;;;;4.20;3.90;;;;;;;16.96;65.38;99565.30;256106;1104;115965;-68
2021/07/03 21:53:20;;;;;;;3.43;3.13;;;;;;;16.86;65.92;99565.36;255281;1104;115592;-68
2021/07/03 21:58:24;;;;;;;8.70;4.58;;;;;;;16.80;65.97;99559.23;254932;1104;115656;-68
2021/07/03 22:03:28;;;;;;;4.78;4.13;;;;;;;16.71;66.15;99560.09;254936;1100;115351;-68
2021/07/03 22:08:32;;;;;;;5.03;4.28;;;;;;;16.61;66.14;99560.92;254811;1104;115543;-68
2021/07/03 22:13:35;;;;;;;3.75;3.45;;;;;;;16.41;65.96;99540.33;254778;1100;115459;-67
2021/07/03 22:18:39;;;;;;;4.90;4.28;;;;;;;16.22;66.80;99560.04;257228;1104;114859;-68
2021/07/03 22:23:42;;;;;;;4.88;4.38;;;;;;;16.10;66.86;99546.93;256901;1104;114824;-68
2021/07/03 22:28:51;;;;;;;7.70;3.98;;;;;;;15.98;67.18;99547.23;257115;1104;114958;-68
2021/07/03 22:33:56;;;;;;;4.67;4.27;;;;;;;16.01;67.04;99549.38;257246;1104;115172;-68
2021/07/03 22:38:59;;;;;;;5.68;3.80;;;;;;;16.01;67.33;99545.88;255805;1099;116817;-69
2021/07/03 22:44:03;;;;;;;4.15;3.68;;;;;;;15.94;67.80;99542.67;256303;1104;115695;-69
2021/07/03 22:49:07;;;;;;;10.68;4.68;;;;;;;15.95;67.83;99542.41;254651;1100;206686;-70
2021/07/03 22:54:11;;;;;;;4.63;3.68;;;;;;;15.90;67.65;99550.48;256129;1104;116594;-70
2021/07/03 22:59:15;;;;;;;5.10;4.70;;;;;;;15.81;67.67;99534.13;254992;1104;116201;-69
2021/07/03 23:04:18;;;;;;;4.55;4.13;;;;;;;15.72;68.15;99532.27;254094;1104;116813;-69
2021/07/03 23:09:23;;;;;;;5.00;4.43;;;;;;;15.64;67.90;99525.57;254594;1104;116391;-69
2021/07/03 23:14:26;;;;;;;4.78;4.38;;;;;;;15.61;68.63;99536.86;254746;1104;116126;-69
2021/07/03 23:19:30;;;;;;;6.05;5.03;;;;;;;15.57;68.73;99526.95;254571;1099;116071;-68